Hannibal, Missouri
Current Conditions -  °F | °C
As of 12:54 AM on Sunday 23 Nov 2014 (Local Time) from KUIN Reporting Station
Clear Clear  
Wind Chill: 51°   Ceiling: Unl
Heat Index: 51°   Visibility: 10mi
Dew Point: 47°   Wind: 10mph
Humidity: 86%   Direction: 180°S
Pressure: 29.77"   Gusts: NA
Location:  39.7°N, 91.38°W
Report Text: KUIN 230654Z AUTO 18009KT 10SM CLR 11/08 A2977 RMK AO2 SLP078 T01060083
Loading
Personal Weather Stations






























Interactive Weather Map New forecast layout! Learn more

10-Day Weather Forecast

Advertisements
Track Severe Weather on mobile